createdAt,value
2017-02-26T00:23:19.546Z,1015
2017-02-26T00:24:22.061Z,1015
2017-02-26T00:25:24.568Z,1015
2017-02-26T00:26:27.076Z,1015
2017-02-26T00:27:29.421Z,1015
2017-02-26T00:28:32.731Z,1015
2017-02-26T00:30:37.176Z,1015
2017-02-26T00:31:40.187Z,1015
2017-02-26T00:32:42.690Z,1015
2017-02-26T00:34:47.901Z,1015
2017-02-26T00:38:58.137Z,1014.9
2017-02-26T00:46:16.356Z,1014.8
2017-02-26T00:49:24.170Z,1014.8
2017-02-26T00:50:26.675Z,1014.7
2017-02-26T00:52:31.899Z,1014.7
2017-02-26T00:54:36.828Z,1014.7
2017-02-26T00:55:39.676Z,1014.7
2017-02-26T00:59:50.202Z,1014.5
2017-02-26T01:07:08.405Z,1014.5
2017-02-26T01:08:10.905Z,1014.5
2017-02-26T01:53:02.237Z,1014.4
2017-02-26T01:56:10.067Z,1014.4
2017-02-26T01:57:12.565Z,1014.4
2017-02-26T02:14:56.894Z,1014.2
2017-02-26T02:15:59.392Z,1014.2
2017-02-26T02:17:01.901Z,1014.3
2017-02-26T02:18:04.407Z,1014.2
2017-02-26T02:19:06.926Z,1014.3
2017-02-26T02:20:09.682Z,1014.3
2017-02-26T02:21:12.031Z,1014.3
2017-02-26T02:22:15.059Z,1014.3
2017-02-26T02:23:17.576Z,1014.3
2017-02-26T02:24:20.138Z,1014.2
2017-02-26T02:25:22.744Z,1014.2
2017-02-26T02:26:25.247Z,1014.2
2017-02-26T02:27:27.746Z,1014.2
2017-02-26T02:28:30.255Z,1014.2
2017-02-26T02:29:33.256Z,1014.2
2017-02-26T02:30:36.010Z,1014.1
2017-02-26T02:31:38.023Z,1014.1
2017-02-26T02:32:40.537Z,1014.2
2017-02-26T02:33:43.598Z,1014.1
2017-02-26T02:34:46.013Z,1014.1
2017-02-26T02:35:48.790Z,1014.1
2017-02-26T02:36:51.298Z,1014.1
2017-02-26T02:37:53.860Z,1014.1
2017-02-26T02:38:56.365Z,1014.1
2017-02-26T02:39:58.900Z,1014.1
2017-02-26T02:41:01.748Z,1014.2
2017-02-26T02:42:04.257Z,1014.1
2017-02-26T02:44:09.214Z,1014.1
2017-02-26T02:45:11.711Z,1014.2
2017-02-26T02:46:14.980Z,1014.2
2017-02-26T02:47:17.326Z,1014.2
2017-02-26T02:48:19.675Z,1014.2
2017-02-26T02:49:22.173Z,1014.2
2017-02-26T02:50:24.679Z,1014.2
2017-02-26T02:51:27.956Z,1014.2
2017-02-26T02:52:29.824Z,1014.2
2017-02-26T02:53:32.832Z,1014.2
2017-02-26T02:54:35.347Z,1014.1
2017-02-26T02:55:37.861Z,1014.2
2017-02-26T02:56:40.630Z,1014.2
2017-02-26T02:57:43.134Z,1014.2
2017-02-26T02:58:45.652Z,1014.2
2017-02-26T02:59:48.166Z,1014.2
2017-02-26T03:00:51.019Z,1014.1
2017-02-26T03:01:53.800Z,1014.1
2017-02-26T03:02:55.813Z,1014.1
2017-02-26T03:03:58.331Z,1014.1
2017-02-26T03:05:01.349Z,1014
2017-02-26T03:06:03.859Z,1014
2017-02-26T03:07:06.620Z,1014.1
2017-02-26T03:08:08.955Z,1014
2017-02-26T03:09:11.794Z,1014
2017-02-26T03:10:14.309Z,1014
2017-02-26T03:11:16.818Z,1013.9
2017-02-26T03:12:19.458Z,1014
2017-02-26T03:13:21.962Z,1014
2017-02-26T03:14:24.469Z,1014
2017-02-26T03:15:26.979Z,1014
2017-02-26T03:16:29.485Z,1014
2017-02-26T03:17:32.580Z,1014
2017-02-26T03:18:35.088Z,1014
2017-02-26T03:19:37.598Z,1014
2017-02-26T03:20:39.936Z,1014
2017-02-26T03:21:42.795Z,1014
2017-02-26T03:22:45.612Z,1014.1
2017-02-26T03:23:47.614Z,1014
2017-02-26T03:24:50.616Z,1014
2017-02-26T03:25:53.129Z,1014
2017-02-26T03:26:55.675Z,1013.9
2017-02-26T03:27:58.479Z,1013.9
2017-02-26T03:29:00.980Z,1013.9
2017-02-26T03:31:05.896Z,1013.9
2017-02-26T03:32:08.402Z,1013.9
2017-02-26T03:33:11.670Z,1013.9
2017-02-26T03:38:24.199Z,1013.8
2017-02-26T03:48:50.140Z,1013.7
2017-02-26T03:53:00.347Z,1013.6
2017-02-26T03:55:05.955Z,1013.6
2017-02-26T03:58:13.223Z,1013.6
2017-02-26T03:59:16.196Z,1013.6
2017-02-26T04:01:21.330Z,1013.6
2017-02-26T04:02:23.791Z,1013.6
2017-02-26T04:04:29.156Z,1013.5
2017-02-26T04:14:55.047Z,1013.4
2017-02-26T04:20:07.932Z,1013.4
2017-02-26T04:44:07.591Z,1013.1
2017-02-26T04:45:10.041Z,1013.2
2017-02-26T04:46:12.499Z,1013.1
2017-02-26T04:47:15.451Z,1013.1
2017-02-26T04:51:25.908Z,1013.1
2017-02-26T04:52:28.367Z,1013.1
2017-02-26T04:53:30.847Z,1013.1
2017-02-26T04:55:36.039Z,1013.1
2017-02-26T04:56:38.817Z,1013.1
2017-02-26T04:57:41.267Z,1013.1
2017-02-26T04:58:43.740Z,1013.1
2017-02-26T04:59:46.190Z,1013.1
2017-02-26T05:00:49.145Z,1013.1
2017-02-26T05:01:51.855Z,1013.1
2017-02-26T05:02:54.337Z,1013.2
2017-02-26T05:03:56.805Z,1013.2
2017-02-26T05:04:59.266Z,1013.2
2017-02-26T05:06:01.748Z,1013.3
2017-02-26T05:07:04.957Z,1013.3
2017-02-26T05:08:06.925Z,1013.3
2017-02-26T05:09:09.896Z,1013.3
2017-02-26T05:10:12.193Z,1013.3
2017-02-26T05:11:14.660Z,1013.2
2017-02-26T05:14:22.704Z,1013.3
2017-02-26T05:16:27.576Z,1013.3
2017-02-26T05:17:30.548Z,1013.2
2017-02-26T05:19:35.687Z,1013.1
2017-02-26T05:20:37.972Z,1013.2
2017-02-26T05:21:40.769Z,1013.2
2017-02-26T05:22:43.571Z,1013.1
2017-02-26T05:23:46.022Z,1013.1
2017-02-26T05:24:48.751Z,1013.1
2017-02-26T05:25:51.205Z,1013.1
2017-02-26T05:26:53.672Z,1013.2
2017-02-26T05:27:56.141Z,1013.1
2017-02-26T05:30:01.802Z,1013.1
2017-02-26T05:31:04.139Z,1013.1
2017-02-26T05:32:06.612Z,1013.1
2017-02-26T05:33:09.293Z,1013.1
2017-02-26T05:35:14.743Z,1013.1
2017-02-26T05:36:17.235Z,1013.1
2017-02-26T05:37:19.736Z,1013.1
2017-02-26T05:38:22.186Z,1013.2
2017-02-26T05:39:24.974Z,1013.2
2017-02-26T05:40:27.724Z,1013.2
2017-02-26T05:42:32.588Z,1013.2
2017-02-26T05:43:35.061Z,1013.1
2017-02-26T05:44:37.555Z,1013.1
2017-02-26T05:45:40.756Z,1013.1
2017-02-26T05:47:45.616Z,1013
2017-02-26T05:48:48.086Z,1013
2017-02-26T05:49:50.540Z,1013
2017-02-26T05:50:53.743Z,1013
2017-02-26T05:55:03.931Z,1013
2017-02-26T05:56:06.713Z,1013
2017-02-26T05:57:08.998Z,1013
2017-02-26T05:58:11.286Z,1013.1
2017-02-26T05:59:14.086Z,1013
2017-02-26T06:00:16.881Z,1013.1
2017-02-26T06:01:19.471Z,1013
2017-02-26T06:02:21.961Z,1013
2017-02-26T06:09:40.109Z,1013.1
2017-02-26T06:10:42.599Z,1013.1
2017-02-26T06:11:45.072Z,1013.1
2017-02-26T06:12:47.526Z,1013.1
2017-02-26T06:13:50.491Z,1013.1
2017-02-26T06:22:11.608Z,1013.1
2017-02-26T06:28:26.861Z,1012.8
2017-02-26T06:30:31.717Z,1012.9
2017-02-26T06:43:03.242Z,1013.1
2017-02-26T06:44:05.702Z,1013.1
2017-02-26T06:53:29.049Z,1012.9
2017-02-26T06:54:31.510Z,1013
2017-02-26T06:56:36.403Z,1013
2017-02-26T06:57:39.370Z,1013
2017-02-26T06:58:41.913Z,1013
2017-02-26T07:01:49.529Z,1012.9
2017-02-26T07:02:51.983Z,1012.9
2017-02-26T07:03:55.249Z,1013
2017-02-26T07:04:57.200Z,1012.9
2017-02-26T07:06:00.166Z,1012.9
2017-02-26T07:07:02.655Z,1012.9
2017-02-26T07:08:05.108Z,1012.9
2017-02-26T07:09:07.810Z,1012.9
2017-02-26T07:10:10.288Z,1012.9
2017-02-26T07:11:12.757Z,1013
2017-02-26T07:12:15.711Z,1012.9
2017-02-26T07:13:18.189Z,1013
2017-02-26T07:14:20.918Z,1013
2017-02-26T07:15:23.372Z,1013
2017-02-26T07:16:25.653Z,1013
2017-02-26T07:17:28.619Z,1013
2017-02-26T07:18:31.087Z,1012.9
2017-02-26T07:19:33.786Z,1013
2017-02-26T07:20:36.231Z,1013
2017-02-26T07:21:38.549Z,1013.1
2017-02-26T07:22:41.505Z,1013.1
2017-02-26T07:23:43.975Z,1013
2017-02-26T07:24:46.694Z,1013.1
2017-02-26T07:25:49.156Z,1013.1
2017-02-26T07:26:51.648Z,1013.1
2017-02-26T07:27:54.104Z,1013.1
2017-02-26T07:28:57.059Z,1013.2
2017-02-26T07:31:02.186Z,1013.1
2017-02-26T07:32:04.681Z,1013.2
2017-02-26T07:33:07.497Z,1013.1
2017-02-26T07:34:09.953Z,1013.1
2017-02-26T07:35:12.746Z,1013
2017-02-26T07:36:15.294Z,1013
2017-02-26T07:37:17.742Z,1013
2017-02-26T07:38:20.045Z,1013.1
2017-02-26T07:40:25.431Z,1013.1
2017-02-26T07:41:28.184Z,1013.1
2017-02-26T07:42:30.484Z,1013.2
2017-02-26T07:43:33.441Z,1013.1
2017-02-26T07:44:35.892Z,1013.1
2017-02-26T07:45:38.344Z,1013.1
2017-02-26T07:46:41.434Z,1013.1
2017-02-26T07:47:43.887Z,1013.1
2017-02-26T07:48:46.188Z,1013.1
2017-02-26T07:49:48.685Z,1013.1
2017-02-26T07:50:51.646Z,1013.1
2017-02-26T07:51:54.356Z,1013
2017-02-26T07:52:56.811Z,1013.1
2017-02-26T07:53:59.265Z,1013
2017-02-26T07:55:01.751Z,1012.9
2017-02-26T07:56:04.207Z,1012.9
2017-02-26T07:57:07.245Z,1013
2017-02-26T07:58:09.706Z,1013
2017-02-26T07:59:12.490Z,1013
2017-02-26T08:00:14.943Z,1013
2017-02-26T08:01:17.407Z,1012.9
2017-02-26T08:02:20.183Z,1012.9
2017-02-26T08:03:22.644Z,1012.9
2017-02-26T08:04:25.098Z,1013
2017-02-26T08:06:30.472Z,1013
2017-02-26T08:07:33.225Z,1013.1
2017-02-26T08:08:35.508Z,1013
2017-02-26T08:09:37.987Z,1013
2017-02-26T08:10:40.951Z,1013.1
2017-02-26T08:11:43.409Z,1013
2017-02-26T08:12:46.119Z,1013
2017-02-26T08:13:48.576Z,1013
2017-02-26T08:14:51.025Z,1013
2017-02-26T08:15:53.654Z,1013.1
2017-02-26T08:16:56.613Z,1013
2017-02-26T08:17:59.392Z,1013
2017-02-26T08:19:01.849Z,1013
2017-02-26T08:20:04.315Z,1012.9
2017-02-26T08:21:06.612Z,1013
2017-02-26T08:22:09.583Z,1013.1
2017-02-26T08:23:12.357Z,1013.1
2017-02-26T08:24:14.837Z,1013.1
2017-02-26T08:25:17.288Z,1013.1
2017-02-26T08:26:19.567Z,1013.1
2017-02-26T08:27:22.525Z,1013.1
2017-02-26T08:28:25.419Z,1013.1
2017-02-26T08:29:27.371Z,1013.1
2017-02-26T08:31:32.736Z,1013.1
2017-02-26T08:32:35.199Z,1013.1
2017-02-26T08:33:38.404Z,1013.1
2017-02-26T08:34:40.859Z,1013.1
2017-02-26T08:35:43.184Z,1013.1
2017-02-26T08:36:45.649Z,1013.1
2017-02-26T08:37:48.460Z,1013.2
2017-02-26T08:38:51.162Z,1013.2
2017-02-26T08:39:53.446Z,1013.1
2017-02-26T08:40:56.414Z,1013.1
2017-02-26T08:41:58.868Z,1013.1
2017-02-26T08:43:01.326Z,1013.1
2017-02-26T08:44:04.542Z,1013.1
2017-02-26T08:45:06.490Z,1013.1
2017-02-26T08:46:09.444Z,1013.1
2017-02-26T08:47:11.904Z,1013.1
2017-02-26T08:48:14.357Z,1013
2017-02-26T08:49:17.452Z,1013
2017-02-26T08:50:19.744Z,1013
2017-02-26T08:51:22.050Z,1013
2017-02-26T08:52:25.005Z,1013
2017-02-26T08:53:27.467Z,1013
2017-02-26T08:54:30.540Z,1013
2017-02-26T08:55:32.490Z,1013
2017-02-26T08:56:35.457Z,1013
2017-02-26T08:57:37.914Z,1013
2017-02-26T08:58:40.367Z,1013
2017-02-26T08:59:43.403Z,1013
2017-02-26T09:01:48.167Z,1013
2017-02-26T09:02:51.120Z,1013.1
2017-02-26T09:03:53.580Z,1013
2017-02-26T09:04:56.362Z,1013.1
2017-02-26T09:05:58.830Z,1013
2017-02-26T09:07:01.280Z,1013
2017-02-26T09:08:04.239Z,1013
2017-02-26T09:09:06.695Z,1013
2017-02-26T09:10:09.447Z,1012.9
2017-02-26T09:11:11.903Z,1012.9
2017-02-26T09:12:14.351Z,1012.9
2017-02-26T09:13:17.136Z,1012.9
2017-02-26T09:14:19.755Z,1012.8
2017-02-26T09:15:22.467Z,1012.9
2017-02-26T09:16:24.929Z,1012.8
2017-02-26T09:17:27.720Z,1012.8
2017-02-26T09:18:30.190Z,1012.9
2017-02-26T09:19:32.639Z,1012.9
2017-02-26T09:20:35.848Z,1012.8
2017-02-26T09:21:37.796Z,1012.8
2017-02-26T09:22:40.749Z,1012.7
2017-02-26T09:23:43.227Z,1012.7
2017-02-26T09:24:46.023Z,1012.7
2017-02-26T09:25:48.777Z,1012.7
2017-02-26T09:26:51.227Z,1012.8
2017-02-26T09:27:53.699Z,1012.7
2017-02-26T09:28:56.170Z,1012.7
2017-02-26T09:29:59.123Z,1012.7
2017-02-26T09:32:04.311Z,1012.7
2017-02-26T09:33:06.772Z,1012.7
2017-02-26T09:34:09.279Z,1012.8
2017-02-26T09:35:12.157Z,1012.7
2017-02-26T09:36:14.644Z,1012.7
2017-02-26T09:37:17.184Z,1012.7
2017-02-26T09:38:19.966Z,1012.7
2017-02-26T09:39:22.419Z,1012.7
2017-02-26T09:40:24.882Z,1012.7
2017-02-26T09:41:27.838Z,1012.7
2017-02-26T09:42:30.543Z,1012.7
2017-02-26T09:43:32.994Z,1012.7
2017-02-26T09:44:35.291Z,1012.6
2017-02-26T09:45:38.260Z,1012.7
2017-02-26T09:46:40.710Z,1012.8
2017-02-26T09:47:43.410Z,1012.7
2017-02-26T09:48:45.688Z,1012.8
2017-02-26T09:49:48.488Z,1012.7
2017-02-26T09:50:50.966Z,1012.7
2017-02-26T09:51:53.930Z,1012.7
2017-02-26T09:52:56.641Z,1012.7
2017-02-26T09:53:59.143Z,1012.7
2017-02-26T09:55:01.599Z,1012.8
2017-02-26T09:56:04.074Z,1012.8
2017-02-26T09:57:07.039Z,1012.8
2017-02-26T09:58:09.791Z,1012.9
2017-02-26T09:59:12.254Z,1012.8
2017-02-26T10:00:14.710Z,1012.9
2017-02-26T10:01:17.166Z,1012.9
2017-02-26T10:02:19.638Z,1012.8
2017-02-26T10:03:22.908Z,1012.7
2017-02-26T10:04:25.202Z,1012.7
2017-02-26T10:05:27.661Z,1012.7
2017-02-26T10:06:30.449Z,1012.8
2017-02-26T10:07:32.922Z,1012.7
2017-02-26T10:08:35.674Z,1012.7
2017-02-26T10:09:38.146Z,1012.7
2017-02-26T10:10:40.596Z,1012.7
2017-02-26T10:11:43.562Z,1012.7
2017-02-26T10:12:46.028Z,1012.8
2017-02-26T10:13:48.771Z,1012.7
2017-02-26T10:14:51.058Z,1012.7
2017-02-26T10:15:54.010Z,1012.6
2017-02-26T10:16:56.469Z,1012.6
2017-02-26T10:17:59.287Z,1012.7
2017-02-26T10:19:02.005Z,1012.6
2017-02-26T10:20:04.472Z,1012.7
2017-02-26T10:21:06.932Z,1012.8
2017-02-26T10:22:09.384Z,1012.7
2017-02-26T10:23:12.348Z,1012.7
2017-02-26T10:25:17.463Z,1012.7
2017-02-26T10:26:19.915Z,1012.7
2017-02-26T10:27:22.383Z,1012.7
2017-02-26T10:29:27.552Z,1012.7
2017-02-26T10:30:30.761Z,1012.7
2017-02-26T10:31:33.227Z,1012.8
2017-02-26T10:32:35.511Z,1012.7
2017-02-26T10:33:37.986Z,1012.7
2017-02-26T10:34:40.771Z,1012.7
2017-02-26T10:35:43.528Z,1012.7
2017-02-26T10:36:45.990Z,1012.8
2017-02-26T10:37:48.438Z,1012.8
2017-02-26T10:38:51.395Z,1012.7
2017-02-26T10:39:53.682Z,1012.7
2017-02-26T10:40:56.887Z,1012.8
2017-02-26T10:41:59.348Z,1012.7
2017-02-26T10:43:01.851Z,1012.7
2017-02-26T10:44:04.368Z,1012.7
2017-02-26T10:45:06.817Z,1012.8
2017-02-26T10:46:10.057Z,1012.8
2017-02-26T10:48:14.768Z,1012.8
2017-02-26T10:49:17.221Z,1012.7
2017-02-26T10:50:20.016Z,1012.7
2017-02-26T10:51:22.718Z,1012.7
2017-02-26T10:52:25.182Z,1012.7
2017-02-26T10:53:27.973Z,1012.7
2017-02-26T10:54:30.262Z,1012.7
2017-02-26T10:55:33.218Z,1012.8
2017-02-26T10:56:35.775Z,1012.7
2017-02-26T10:57:38.259Z,1012.7
2017-02-26T10:58:41.215Z,1012.7
2017-02-26T10:59:43.675Z,1012.7
2017-02-26T11:00:46.133Z,1012.7
2017-02-26T11:01:48.893Z,1012.7
2017-02-26T11:02:51.689Z,1012.7
2017-02-26T11:03:54.141Z,1012.7
2017-02-26T11:04:56.631Z,1012.7
2017-02-26T11:05:59.113Z,1012.6
2017-02-26T11:07:02.364Z,1012.7
2017-02-26T11:08:04.309Z,1012.7
2017-02-26T11:09:07.261Z,1012.7
2017-02-26T11:10:09.731Z,1012.6
2017-02-26T11:11:12.189Z,1012.6
2017-02-26T11:12:15.465Z,1012.6
2017-02-26T11:13:17.421Z,1012.6
2017-02-26T11:14:20.379Z,1012.6
2017-02-26T11:15:22.849Z,1012.6
2017-02-26T11:16:25.302Z,1012.6
2017-02-26T11:17:28.519Z,1012.6
2017-02-26T11:18:30.969Z,1012.5
2017-02-26T11:19:33.418Z,1012.5
2017-02-26T11:20:36.206Z,1012.6
2017-02-26T11:21:38.667Z,1012.5
2017-02-26T11:22:41.443Z,1012.6
2017-02-26T11:23:43.726Z,1012.5
2017-02-26T11:24:46.682Z,1012.6
2017-02-26T11:25:49.146Z,1012.5
2017-02-26T11:26:51.666Z,1012.6
2017-02-26T11:27:54.438Z,1012.5
2017-02-26T11:28:56.895Z,1012.5
2017-02-26T11:29:59.376Z,1012.4
2017-02-26T11:31:02.330Z,1012.5
2017-02-26T11:32:04.808Z,1012.4
2017-02-26T11:33:07.522Z,1012.5
2017-02-26T11:34:09.993Z,1012.4
2017-02-26T11:35:12.949Z,1012.4
2017-02-26T11:36:15.402Z,1012.4
2017-02-26T11:37:17.862Z,1012.4
2017-02-26T11:38:20.920Z,1012.5
2017-02-26T11:39:23.205Z,1012.4
2017-02-26T11:40:26.031Z,1012.4
2017-02-26T11:41:28.487Z,1012.4
2017-02-26T11:42:30.959Z,1012.5
2017-02-26T11:43:34.010Z,1012.4
2017-02-26T11:45:39.038Z,1012.5
2017-02-26T11:46:41.514Z,1012.4
2017-02-26T11:47:44.466Z,1012.4
2017-02-26T11:48:47.180Z,1012.3
2017-02-26T11:49:49.631Z,1012.3
2017-02-26T11:50:52.080Z,1012.3
2017-02-26T11:51:54.869Z,1012.2
2017-02-26T11:52:57.321Z,1012.2
2017-02-26T11:54:00.533Z,1012.2
2017-02-26T11:55:02.988Z,1012.2
2017-02-26T11:56:05.278Z,1012.2
2017-02-26T11:57:08.248Z,1012.2
2017-02-26T11:58:10.754Z,1012.1
2017-02-26T11:59:13.508Z,1012.1
2017-02-26T12:00:15.791Z,1012.1
2017-02-26T12:02:21.193Z,1012
2017-02-26T12:03:23.664Z,1012
2017-02-26T12:04:26.891Z,1011.9
2017-02-26T12:05:28.847Z,1011.9
2017-02-26T12:06:31.814Z,1011.8
2017-02-26T12:07:34.346Z,1011.9
2017-02-26T12:08:36.973Z,1011.8
2017-02-26T12:09:39.678Z,1011.8
2017-02-26T12:10:42.143Z,1011.8
2017-02-26T12:11:44.612Z,1011.8
2017-02-26T12:12:47.403Z,1011.8
2017-02-26T12:13:49.856Z,1011.8
2017-02-26T12:14:53.069Z,1011.9
2017-02-26T12:15:55.366Z,1011.8
2017-02-26T12:16:57.840Z,1011.9
2017-02-26T12:18:00.798Z,1011.9
2017-02-26T12:19:03.251Z,1011.8
2017-02-26T12:20:05.969Z,1011.8
2017-02-26T12:21:08.605Z,1011.9
2017-02-26T12:22:11.087Z,1011.8
2017-02-26T12:23:13.557Z,1011.8
2017-02-26T12:24:16.514Z,1011.8
2017-02-26T12:25:19.048Z,1011.8
2017-02-26T12:26:21.496Z,1011.8
2017-02-26T12:29:29.799Z,1011.7
2017-02-26T12:30:32.501Z,1011.6
2017-02-26T12:31:34.966Z,1011.5
2017-02-26T12:32:37.425Z,1011.5
2017-02-26T12:33:39.893Z,1011.6
2017-02-26T12:34:42.846Z,1011.6
2017-02-26T12:35:45.627Z,1011.6
2017-02-26T12:36:48.080Z,1011.6
2017-02-26T12:37:50.565Z,1011.5
2017-02-26T12:38:53.353Z,1011.6
2017-02-26T12:39:56.137Z,1011.6
2017-02-26T12:40:58.851Z,1011.5
2017-02-26T12:42:01.320Z,1011.6
2017-02-26T12:43:03.803Z,1011.6
2017-02-26T12:45:08.995Z,1011.6
2017-02-26T12:46:12.269Z,1011.6
2017-02-26T12:47:14.215Z,1011.6
2017-02-26T12:48:17.181Z,1011.6
2017-02-26T12:49:19.658Z,1011.6
2017-02-26T12:50:22.128Z,1011.6
2017-02-26T12:51:25.208Z,1011.6
2017-02-26T12:52:27.654Z,1011.6
2017-02-26T12:53:30.447Z,1011.6
2017-02-26T12:54:32.727Z,1011.6
2017-02-26T12:55:35.517Z,1011.6
2017-02-26T12:56:38.404Z,1011.5
2017-02-26T12:57:40.855Z,1011.5
2017-02-26T12:58:43.307Z,1011.7
2017-02-26T12:59:46.259Z,1011.5
2017-02-26T13:00:48.552Z,1011.6
2017-02-26T13:01:51.765Z,1011.6
2017-02-26T13:02:54.229Z,1011.6
2017-02-26T13:03:56.681Z,1011.5
2017-02-26T13:04:59.151Z,1011.6
2017-02-26T13:06:02.129Z,1011.6
2017-02-26T13:07:04.883Z,1011.6
2017-02-26T13:08:07.336Z,1011.5
2017-02-26T13:09:09.782Z,1011.6
2017-02-26T13:10:12.754Z,1011.5
2017-02-26T13:11:15.213Z,1011.5
2017-02-26T13:12:17.993Z,1011.5
2017-02-26T13:13:20.285Z,1011.5
2017-02-26T13:14:23.089Z,1011.6
2017-02-26T13:15:25.887Z,1011.5
2017-02-26T13:16:28.225Z,1011.5
2017-02-26T13:17:31.443Z,1011.5
2017-02-26T13:19:36.295Z,1011.4
2017-02-26T13:20:39.083Z,1011.3
2017-02-26T13:21:41.541Z,1011.3
2017-02-26T13:22:44.749Z,1011.3
2017-02-26T13:23:46.878Z,1011.3
2017-02-26T13:24:49.836Z,1011.2
2017-02-26T13:25:52.310Z,1011.2
2017-02-26T13:26:54.760Z,1011.3
2017-02-26T13:27:57.802Z,1011.3
2017-02-26T13:29:00.257Z,1011.2
2017-02-26T13:30:02.714Z,1011.3
2017-02-26T13:31:05.507Z,1011.2
2017-02-26T13:32:08.339Z,1011.3
2017-02-26T13:33:11.060Z,1011.3
2017-02-26T13:34:13.510Z,1011.3
2017-02-26T13:35:15.986Z,1011.4
2017-02-26T13:36:18.971Z,1011.4
2017-02-26T13:37:21.425Z,1011.4
2017-02-26T13:38:24.128Z,1011.3
2017-02-26T13:39:26.918Z,1011.4
2017-02-26T13:40:29.200Z,1011.4
2017-02-26T13:41:32.200Z,1011.4
2017-02-26T13:42:34.647Z,1011.5
2017-02-26T13:43:37.686Z,1011.4
2017-02-26T13:44:39.872Z,1011.5
2017-02-26T13:45:42.828Z,1011.4
2017-02-26T13:46:45.304Z,1011.4
2017-02-26T13:47:47.768Z,1011.4
2017-02-26T13:48:50.821Z,1011.4
2017-02-26T13:49:53.281Z,1011.4
2017-02-26T13:50:55.770Z,1011.4
2017-02-26T13:51:58.739Z,1011.4
2017-02-26T13:53:01.230Z,1011.4
2017-02-26T13:54:04.273Z,1011.5
2017-02-26T13:55:06.564Z,1011.5
2017-02-26T13:56:09.348Z,1011.6
2017-02-26T13:57:11.666Z,1011.6
2017-02-26T13:58:14.633Z,1011.6
2017-02-26T13:59:17.415Z,1011.6
2017-02-26T14:00:19.883Z,1011.6
2017-02-26T14:01:22.339Z,1011.6
2017-02-26T14:02:25.125Z,1011.6
2017-02-26T14:03:28.087Z,1011.7
2017-02-26T14:04:30.791Z,1011.6
2017-02-26T14:05:33.259Z,1011.6
2017-02-26T14:06:35.713Z,1011.5
2017-02-26T14:07:38.678Z,1011.4
2017-02-26T14:08:40.961Z,1011.6
2017-02-26T14:09:43.997Z,1011.4
2017-02-26T14:10:46.292Z,1011.5
2017-02-26T14:11:49.088Z,1011.5
2017-02-26T14:12:51.543Z,1011.5
2017-02-26T14:13:54.513Z,1011.4
2017-02-26T14:14:57.266Z,1011.5
2017-02-26T14:15:59.757Z,1011.4
2017-02-26T14:17:02.545Z,1011.4
2017-02-26T14:18:05.000Z,1011.4
2017-02-26T14:19:07.451Z,1011.4
2017-02-26T14:20:10.538Z,1011.4
2017-02-26T14:21:13.024Z,1011.4
2017-02-26T14:22:15.486Z,1011.4
2017-02-26T14:24:20.862Z,1011.4
2017-02-26T14:26:26.388Z,1011.3
2017-02-26T14:28:31.749Z,1011.4
2017-02-26T14:29:34.211Z,1011.3
2017-02-26T14:30:36.706Z,1011.4
2017-02-26T14:31:39.937Z,1011.4
2017-02-26T14:32:42.392Z,1011.4
2017-02-26T14:33:44.782Z,1011.4
2017-02-26T14:34:47.737Z,1011.4
2017-02-26T14:35:50.019Z,1011.4
2017-02-26T14:36:53.267Z,1011.4
2017-02-26T14:37:55.729Z,1011.4
2017-02-26T14:38:58.030Z,1011.4
2017-02-26T14:41:03.747Z,1011.5
2017-02-26T14:42:06.465Z,1011.5
2017-02-26T14:43:08.762Z,1011.5
2017-02-26T14:44:11.735Z,1011.5
2017-02-26T14:45:14.191Z,1011.5
2017-02-26T14:46:16.653Z,1011.5
2017-02-26T14:47:19.921Z,1011.5
2017-02-26T14:48:22.369Z,1011.5
2017-02-26T14:49:24.697Z,1011.4
2017-02-26T14:50:27.647Z,1011.4
2017-02-26T14:51:29.932Z,1011.4
2017-02-26T14:53:35.600Z,1011.4
2017-02-26T14:54:38.057Z,1011.4
2017-02-26T14:55:40.509Z,1011.4
2017-02-26T14:56:43.313Z,1011.4
2017-02-26T14:57:46.121Z,1011.4
2017-02-26T14:58:49.162Z,1011.4
2017-02-26T14:59:51.629Z,1011.4
2017-02-26T15:00:54.083Z,1011.4
2017-02-26T15:01:56.543Z,1011.5
2017-02-26T15:02:59.518Z,1011.4
2017-02-26T15:04:02.278Z,1011.5
2017-02-26T15:05:04.562Z,1011.4
2017-02-26T15:06:07.530Z,1011.4
2017-02-26T15:07:09.993Z,1011.3
2017-02-26T15:08:12.441Z,1011.3
2017-02-26T15:09:15.651Z,1011.3
2017-02-26T15:10:18.106Z,1011.3
2017-02-26T15:11:20.584Z,1011.3
2017-02-26T15:12:23.038Z,1011.2
2017-02-26T15:13:25.858Z,1011.2
2017-02-26T15:14:28.909Z,1011.2
2017-02-26T15:15:31.228Z,1011.2
2017-02-26T15:16:34.024Z,1011.2
2017-02-26T15:17:36.475Z,1011.2
2017-02-26T15:18:39.280Z,1011.2
2017-02-26T15:19:41.997Z,1011.2
2017-02-26T15:20:44.462Z,1011.2
2017-02-26T15:21:46.917Z,1011.2
2017-02-26T15:22:49.882Z,1011.2
2017-02-26T15:23:52.675Z,1011.2
2017-02-26T15:24:55.422Z,1011.2
2017-02-26T15:25:57.738Z,1011.2
2017-02-26T15:27:00.188Z,1011.2
2017-02-26T15:28:03.166Z,1011.2
2017-02-26T15:29:05.633Z,1011.3
2017-02-26T15:30:08.344Z,1011.3
2017-02-26T15:31:11.145Z,1011.3
2017-02-26T15:32:13.597Z,1011.4
2017-02-26T15:33:16.054Z,1011.4
2017-02-26T15:34:18.849Z,1011.4
2017-02-26T15:35:22.108Z,1011.4
2017-02-26T15:36:24.055Z,1011.3
2017-02-26T15:37:26.855Z,1011.3
2017-02-26T15:38:29.811Z,1011.3
2017-02-26T15:39:32.267Z,1011.3
2017-02-26T15:40:34.987Z,1011.3
2017-02-26T15:41:37.468Z,1011.3
2017-02-26T15:42:39.947Z,1011.3
2017-02-26T15:43:42.805Z,1011.3
2017-02-26T15:44:45.759Z,1011.2
2017-02-26T15:45:48.515Z,1011.3
2017-02-26T15:46:50.996Z,1011.2
2017-02-26T15:47:53.462Z,1011.2
2017-02-26T15:48:55.944Z,1011.2
2017-02-26T15:49:58.897Z,1011.2
2017-02-26T15:51:01.609Z,1011.2
2017-02-26T15:52:04.070Z,1011.2
2017-02-26T15:53:06.913Z,1011.2
2017-02-26T15:54:09.380Z,1011.2
2017-02-26T15:55:11.857Z,1011.2
2017-02-26T15:56:15.063Z,1011.3
2017-02-26T15:57:17.516Z,1011.3
2017-02-26T15:58:20.000Z,1011.2
2017-02-26T15:59:22.465Z,1011.2
2017-02-26T16:00:25.420Z,1011.2
2017-02-26T16:01:28.508Z,1011.2
2017-02-26T16:02:30.466Z,1011.2
2017-02-26T16:03:33.440Z,1011.2
2017-02-26T16:04:35.897Z,1011.2
2017-02-26T16:05:38.858Z,1011.2
2017-02-26T16:06:41.630Z,1011.2
2017-02-26T16:07:44.093Z,1011.2
2017-02-26T16:08:46.573Z,1011.3
2017-02-26T16:09:49.048Z,1011.3
2017-02-26T16:10:52.031Z,1011.3
2017-02-26T16:11:54.739Z,1011.3
2017-02-26T16:12:57.032Z,1011.3
2017-02-26T16:14:00.010Z,1011.3
2017-02-26T16:15:02.471Z,1011.3
2017-02-26T16:16:05.439Z,1011.3
2017-02-26T16:17:08.153Z,1011.3
2017-02-26T16:18:10.452Z,1011.3
2017-02-26T16:19:13.416Z,1011.3
2017-02-26T16:20:15.875Z,1011.4
2017-02-26T16:21:18.352Z,1011.4
2017-02-26T16:22:21.456Z,1011.4
2017-02-26T16:23:23.782Z,1011.4
2017-02-26T16:24:26.270Z,1011.4
2017-02-26T16:26:31.640Z,1011.4
2017-02-26T16:27:34.877Z,1011.4
2017-02-26T16:28:36.881Z,1011.4
2017-02-26T16:29:39.669Z,1011.4
2017-02-26T16:30:42.457Z,1011.4
2017-02-26T16:31:44.920Z,1011.4
2017-02-26T16:33:50.604Z,1011.4
2017-02-26T16:34:53.084Z,1011.4
2017-02-26T16:35:55.554Z,1011.4
2017-02-26T16:36:58.516Z,1011.4
2017-02-26T16:38:00.800Z,1011.4
2017-02-26T16:39:04.022Z,1011.4
2017-02-26T16:40:06.473Z,1011.5
2017-02-26T16:41:08.664Z,1011.5
2017-02-26T16:42:11.645Z,1011.5
2017-02-26T16:43:14.458Z,1011.4
2017-02-26T16:44:17.199Z,1011.5
2017-02-26T16:45:19.506Z,1011.5
2017-02-26T16:46:21.958Z,1011.5
2017-02-26T16:47:24.916Z,1011.5
2017-02-26T16:48:27.285Z,1011.5
2017-02-26T16:49:30.548Z,1011.5
2017-02-26T16:50:33.017Z,1011.5
2017-02-26T16:51:35.315Z,1011.5
2017-02-26T16:52:38.282Z,1011.6
2017-02-26T16:53:40.579Z,1011.5
2017-02-26T16:54:43.810Z,1011.5
2017-02-26T16:56:48.668Z,1011.6
2017-02-26T16:57:51.468Z,1011.5
2017-02-26T16:58:53.929Z,1011.5
2017-02-26T16:59:56.691Z,1011.6
2017-02-26T17:00:59.151Z,1011.6
2017-02-26T17:02:02.108Z,1011.6
2017-02-26T17:03:04.563Z,1011.6
2017-02-26T17:04:07.019Z,1011.6
2017-02-26T17:05:10.252Z,1011.6
2017-02-26T17:06:12.551Z,1011.6
2017-02-26T17:07:15.032Z,1011.6
2017-02-26T17:08:17.985Z,1011.6
2017-02-26T17:09:20.460Z,1011.6
2017-02-26T17:10:23.223Z,1011.6
2017-02-26T17:11:26.017Z,1011.6
2017-02-26T17:12:28.315Z,1011.6
2017-02-26T17:13:31.272Z,1011.6
2017-02-26T17:14:33.604Z,1011.6
2017-02-26T17:15:36.641Z,1011.6
2017-02-26T17:16:38.932Z,1011.7
2017-02-26T17:17:41.890Z,1011.7
2017-02-26T17:18:44.381Z,1011.8
2017-02-26T17:19:47.201Z,1011.8
2017-02-26T17:20:49.908Z,1011.8